Airfield :
LOGIN :

Register | Disclaimer

   EN    FR    IT 

 










Legend :    VFR   Marginal VFR   IFR   Intensive IFR   Very Intensive IFR
Visi :
Ceiling :
>= 8 km
>= 3000ft
5 to 8 km
1000 to 3000 ft
1500m to 5 km
500 to 1000 ft
800 to 1500m
200 to 500 ft
< 800m
< 200 ft
Symbols :   Thunderstorms  Fog  Heavy snow  Heavy precipitations  Wind > 20 kt
SIGMETs :     Misc.  Thunderstorms  Icing  Turbulence  Mountain Waves  Volcanic Ashes






- Airport Elevation : 1548 ft


LKNA - Náměšť Air Base

CURRENT METAR :
  • 270500Z 18002KT 0500 R31/0800N FZFG VV002 M03/M04 Q1017 NOSIG RMK RED RED

EXPIRED METARs :
  • 270400Z VRB02KT 0400 R31/0600N FZFG VV002 M03/M04 Q1017 NOSIG
  • 270300Z VRB02KT 0500 R31/0600N FZFG VV002 M03/M04 Q1017 RMK RED

TAF TAF LKNA
Valid from the 27 at 00:00 until the 28 at 00:00 UTC


262300Z 2700/2800 18004KT 0400 FZFG VV002
TEMPO 2700/2709 0100 FZDZ FZFG VV001
PROB30
TEMPO 2710/2716 1500 BR OVC005
TEMPO 2718/2800 15008KT 0200 FZDZ FZFG VV001



MET'MAP, your aeronautical weather chart ! - Copyright ORBIFLY December 2007 - Disclaimer

ORBIFLY MET'MAP TEAM :

Programming & Development : Alexandra Zaïnal
Concept & original design : Baudouin d'Aumeries
Assistance for programming : Marc-Olivier Méhu
Technical & hardware support : Manuel Goepfert

Contact : metmap@orbifly.com




SOURCES & CREDITS :

   NOAA